WetterOnline ( http://www.wetteronline.de )

Wetter aktuell Rhön (in 800m)

Aktuelles Wetter: Wasserkuppe (925m)

6-stündlich | Neueste Meldungen
Ortszeit Temperatur Wetter
Fr, 23.02. 1:00 -8.6° C wolkenlos
Do, 22.02. 19:00 -7.1° C wolkenlos
Do, 22.02. 13:00 -5.1° C leicht bewölkt
Do, 22.02. 7:00 -7.8° C fast wolkenlos
Do, 22.02. 1:00 -7.0° C leicht bewölkt
Mi, 21.02. 19:00 -6.4° C leicht bewölkt
Mi, 21.02. 13:00 -3.2° C leicht bewölkt
Mi, 21.02. 7:00 -7.6° C fast wolkenlos
Ortszeit Temperatur Wetter
Fr, 23.02. 5:30 -10.5° C wolkenlos
Fr, 23.02. 5:20 -10.5° C leicht bewölkt
Fr, 23.02. 5:10 -10.4° C wolkig
Fr, 23.02. 5:00 -10.3° C wolkenlos
Fr, 23.02. 4:50 -10.3° C bewölkt
Fr, 23.02. 4:40 -10.2° C bewölkt
Fr, 23.02. 4:30 -10.1° C wolkenlos
Fr, 23.02. 4:00 -10.0° C wolkenlos
Fr, 23.02. 3:30 -9.8° C wolkenlos
Fr, 23.02. 3:00 -9.4° C wolkenlos
Fr, 23.02. 2:30 -9.2° C wolkenlos
Ortszeit Relative Feuchte Sichtweite
Fr, 23.02. 1:00 71% 40 km
Do, 22.02. 19:00 69% 40 km
Do, 22.02. 13:00 62% 30 km
Do, 22.02. 7:00 75% 28 km
Do, 22.02. 1:00 86% 18 km
Mi, 21.02. 19:00 82% 8 km
Mi, 21.02. 13:00 56% 25 km
Mi, 21.02. 7:00 85% 17 km
Ortszeit Relative Feuchte Sichtweite
Fr, 23.02. 5:30 76% 35 km
Fr, 23.02. 5:20 76% -
Fr, 23.02. 5:10 77% -
Fr, 23.02. 5:00 77% 35 km
Fr, 23.02. 4:50 77% -
Fr, 23.02. 4:40 75% -
Fr, 23.02. 4:30 74% 35 km
Fr, 23.02. 4:00 72% 40 km
Fr, 23.02. 3:30 70% 40 km
Fr, 23.02. 3:00 70% 40 km
Fr, 23.02. 2:30 73% 35 km
Ortszeit Niederschlagsmenge Niederschlagsart
Fr, 23.02. 1:00 0.0 l/m2 in 6 Std. -
Do, 22.02. 19:00 0.0 l/m2 in 12 Std. -
Do, 22.02. 13:00 0.0 l/m2 in 6 Std. -
Do, 22.02. 7:00 0.0 l/m2 in 12 Std. -
Do, 22.02. 1:00 0.0 l/m2 in 6 Std. -
Mi, 21.02. 19:00 0.0 l/m2 in 12 Std. -
Mi, 21.02. 13:00 0.0 l/m2 in 6 Std. -
Mi, 21.02. 7:00 0.1 l/m2 in 12 Std. Schnee, Nebel
Ortszeit Niederschlagsmenge Niederschlagsart
Fr, 23.02. 5:30 0.0 l/m2 in 1 Std. -
Fr, 23.02. 5:20 keine Meldung -
Fr, 23.02. 5:10 keine Meldung -
Fr, 23.02. 5:00 0.0 l/m2 in 1 Std. -
Fr, 23.02. 4:50 keine Meldung -
Fr, 23.02. 4:40 keine Meldung -
Fr, 23.02. 4:30 0.0 l/m2 in 1 Std. -
Fr, 23.02. 4:00 0.0 l/m2 in 1 Std. -
Fr, 23.02. 3:30 0.0 l/m2 in 1 Std. -
Fr, 23.02. 3:00 0.0 l/m2 in 1 Std. -
Fr, 23.02. 2:30 0.0 l/m2 in 1 Std. -
Ortszeit Stärke Spitze Richtung
km/h Bft. km/h Grad Sektor
Fr, 23.02. 1:00 31 5 57 70° O
Do, 22.02. 19:00 31 5 57 50° NO
Do, 22.02. 13:00 22 4 58 60° NO
Do, 22.02. 7:00 30 5 61 60° NO
Do, 22.02. 1:00 37 5 56 70° O
Mi, 21.02. 19:00 33 5 48 50° NO
Mi, 21.02. 13:00 20 4 37 50° NO
Mi, 21.02. 7:00 24 4 35 60° NO
Ortszeit Stärke Spitze Richtung
km/h Bft. km/h Grad Sektor
Fr, 23.02. 5:30 26 4 43 70° O
Fr, 23.02. 5:20 26 4 - 70° O
Fr, 23.02. 5:10 26 4 - 60° NO
Fr, 23.02. 5:00 28 4 52 60° NO
Fr, 23.02. 4:50 28 4 - 60° NO
Fr, 23.02. 4:40 31 5 - 70° O
Fr, 23.02. 4:30 32 5 50 70° O
Fr, 23.02. 4:00 31 5 48 80° O
Fr, 23.02. 3:30 32 5 50 70° O
Fr, 23.02. 3:00 29 5 50 70° O
Fr, 23.02. 2:30 25 4 40 60° NO
Ortszeit Untergrenze Bedeckung Gattung
total tief tief mittel hoch
Fr, 23.02. 1:00 5400 m 0/8 0/8 - - -
Do, 22.02. 19:00 5400 m 0/8 0/8 - - -
Do, 22.02. 13:00 660 m 2/8 2/8 Cu - -
Do, 22.02. 7:00 3600 m 1/8 1/8 - Ac Ci
Do, 22.02. 1:00 330 m 5/8 1/8 Sc As Ci
Mi, 21.02. 19:00 3900 m 6/8 4/8 - Ac Ci
Mi, 21.02. 13:00 7200 m 6/8 0/8 - - Ci
Mi, 21.02. 7:00 2400 m 1/8 1/8 - Ac -
Ortszeit Bedeckungsgrad in Achtel und Wolkenuntergrenze
Fr, 23.02. 5:30 keine Wolken
Fr, 23.02. 5:20 2(6000m)
Fr, 23.02. 5:10 5(6000m)
Fr, 23.02. 5:00 4(5700m)
Fr, 23.02. 4:50 7(5700m)
Fr, 23.02. 4:40 1(5100m) 7(6000m)
Fr, 23.02. 4:30 1(5100m) 5(6000m)
Fr, 23.02. 4:00 4(5400m) 7(6300m)
Fr, 23.02. 3:30 2(5100m) 5(5700m) 6(10500m)
Fr, 23.02. 3:00 1(3900m) 5(6000m)
Fr, 23.02. 2:30 4(5700m)
Ortszeit Stationsdruck (hPa) Tendenz (hPa in 3 Std.)
Fr, 23.02. 1:00 908 - 0,5
Do, 22.02. 19:00 909 - 0,2
Do, 22.02. 13:00 909 - 0,2
Do, 22.02. 7:00 910 - 0,5
Do, 22.02. 1:00 911 - 0,4
Mi, 21.02. 19:00 911 + 0,1
Mi, 21.02. 13:00 911 0,0
Mi, 21.02. 7:00 910 - 0,1
Ortszeit Stationsdruck (hPa) Tendenz (hPa in 3 Std.)
Fr, 23.02. 5:30 908 - 0,7
Fr, 23.02. 5:20 908 keine Meldung
Fr, 23.02. 5:10 908 keine Meldung
Fr, 23.02. 5:00 908 - 0,9
Fr, 23.02. 4:50 908 keine Meldung
Fr, 23.02. 4:40 908 keine Meldung
Fr, 23.02. 4:30 907 - 1,2
Fr, 23.02. 4:00 908 - 0,9
Fr, 23.02. 3:30 908 - 0,7
Fr, 23.02. 3:00 908 - 0,8
Fr, 23.02. 2:30 908 - 0,5
Ortszeit Schneehöhe (cm)
Fr, 23.02. 1:00 14
Do, 22.02. 19:00 14
Do, 22.02. 13:00 14
Do, 22.02. 7:00 14
Do, 22.02. 1:00 14
Mi, 21.02. 19:00 14
Mi, 21.02. 13:00 14
Mi, 21.02. 7:00 14
Ortszeit Schneehöhe (cm)
Fr, 23.02. 5:30 -
Fr, 23.02. 5:20 -
Fr, 23.02. 5:10 -
Fr, 23.02. 5:00 -
Fr, 23.02. 4:50 -
Fr, 23.02. 4:40 -
Fr, 23.02. 4:30 -
Fr, 23.02. 4:00 -
Fr, 23.02. 3:30 -
Fr, 23.02. 3:00 -
Fr, 23.02. 2:30 -
Link zu dieser Seite / Seite empfehlen

Das Wetter in ...